This is the latest recevied weather packets stored in our database for station/object KVDF. If no packets are shown the sender has not sent any weather packets the latest 10 day(s).
| Time | Temp. | Humidity | Pressure | Rain* | Wind** | Luminosity | Snow |
|---|---|---|---|---|---|---|---|
| 1777905821 | 25° C | 50% | 1017.3 hPa | - | - | - | - |
| 1777905221 | 25° C | 50% | 1017.3 hPa | - | - | - | - |
| 1777904618 | 25° C | 50% | 1017.3 hPa | - | - | - | - |
| 1777904023 | 23.89° C | 57% | 1017.3 hPa | - | - | - | - |
| 1777903418 | 23.89° C | 57% | 1017.3 hPa | - | - | - | - |
| 1777902819 | 22.78° C | 60% | 1016.9 hPa | - | - | - | - |
| 1777902220 | 22.78° C | 60% | 1016.9 hPa | - | - | - | - |
| 1777901624 | 21.67° C | 64% | 1016.9 hPa | - | - | - | - |
| 1777901021 | 21.67° C | 64% | 1016.9 hPa | - | - | - | - |
| 1777900420 | 20.56° C | 68% | 1016.9 hPa | - | - | - | - |
| 1777899820 | 20.56° C | 68% | 1016.9 hPa | - | - | - | - |
| 1777899223 | 20° C | 72% | 1016.9 hPa | - | - | - | - |
| 1777898623 | 20° C | 72% | 1016.9 hPa | - | - | - | - |
| 1777898024 | 20° C | 72% | 1016.6 hPa | - | - | - | - |
| 1777897422 | 20° C | 72% | 1016.6 hPa | - | - | - | - |
| 1777896819 | 17.78° C | 82% | 1016.6 hPa | - | - | - | - |
| 1777896220 | 17.78° C | 82% | 1016.6 hPa | - | - | - | - |
| 1777895619 | 16.67° C | 88% | 1016.6 hPa | - | - | - | - |
| 1777895022 | 16.67° C | 88% | 1016.6 hPa | - | - | - | - |
| 1777894422 | 15.56° C | 93% | 1016.3 hPa | - | - | - | - |
| 1777893822 | 15.56° C | 93% | 1016.3 hPa | - | - | - | - |
| 1777893224 | 15.56° C | 93% | 1016.3 hPa | - | - | - | - |
| 1777892620 | 15.56° C | 93% | 1016.3 hPa | - | - | - | - |
| 1777892024 | 15.56° C | 93% | 1016.3 hPa | - | - | - | - |
| 1777891421 | 15.56° C | 93% | 1016.3 hPa | - | - | - | - |
* Rain since midnight (hover to see other rain measurements)
** Current wind speed in m/s (hover to see current wind gust speed)